createdAt,value
2019-06-15T00:00:30.356Z,2.17
2019-06-15T00:02:59.027Z,2.98
2019-06-15T00:05:27.763Z,2.72
2019-06-15T00:07:56.521Z,3.10
2019-06-15T00:10:25.226Z,3.22
2019-06-15T00:12:53.958Z,2.70
2019-06-15T00:15:22.728Z,2.60
2019-06-15T00:17:51.439Z,1.95
2019-06-15T00:20:20.166Z,2.75
2019-06-15T00:22:49.001Z,3.00
2019-06-15T00:25:17.715Z,2.65
2019-06-15T00:27:46.439Z,2.60
2019-06-15T00:30:15.827Z,2.33
2019-06-15T00:32:44.475Z,2.42
2019-06-15T00:35:13.907Z,2.75
2019-06-15T00:37:42.661Z,2.65
2019-06-15T00:40:11.412Z,2.52
2019-06-15T00:42:40.145Z,2.42
2019-06-15T00:45:09.345Z,2.55
2019-06-15T00:47:38.062Z,2.22
2019-06-15T00:50:07.289Z,2.25
2019-06-15T00:52:36.052Z,2.47
2019-06-15T00:55:06.419Z,3.05
2019-06-15T00:57:36.974Z,2.77
2019-06-15T01:00:08.388Z,2.80
2019-06-15T01:02:37.041Z,2.65
2019-06-15T01:05:06.667Z,3.10
2019-06-15T01:07:35.360Z,2.62
2019-06-15T01:10:06.213Z,2.75
2019-06-15T01:12:35.049Z,2.50
2019-06-15T01:15:05.273Z,2.77
2019-06-15T01:17:34.609Z,2.90
2019-06-15T01:20:04.840Z,2.58
2019-06-15T01:22:33.584Z,3.22
2019-06-15T01:25:05.552Z,2.45
2019-06-15T01:27:32.776Z,2.92
2019-06-15T01:30:01.467Z,2.40
2019-06-15T01:32:30.183Z,3.00
2019-06-15T01:34:58.914Z,2.75
2019-06-15T01:37:27.666Z,2.75
2019-06-15T01:39:56.378Z,2.60
2019-06-15T01:42:25.014Z,2.72
2019-06-15T01:44:53.788Z,3.10
2019-06-15T01:47:22.445Z,2.75
2019-06-15T01:49:51.187Z,3.30
2019-06-15T01:52:19.970Z,3.00
2019-06-15T01:54:48.623Z,2.55
2019-06-15T01:57:18.443Z,2.77
2019-06-15T01:59:47.132Z,2.50
2019-06-15T02:02:15.779Z,3.08
2019-06-15T02:04:44.422Z,2.77
2019-06-15T02:07:13.181Z,2.47
2019-06-15T02:09:41.840Z,2.80
2019-06-15T02:12:10.553Z,2.65
2019-06-15T02:14:39.242Z,2.75
2019-06-15T02:17:07.980Z,3.30
2019-06-15T02:19:36.754Z,3.15
2019-06-15T02:22:05.527Z,3.10
2019-06-15T02:24:34.319Z,3.20
2019-06-15T02:27:03.123Z,3.10
2019-06-15T02:29:31.752Z,3.20
2019-06-15T02:32:00.484Z,2.70
2019-06-15T02:34:29.151Z,2.92
2019-06-15T02:36:57.901Z,2.90
2019-06-15T02:39:26.609Z,3.00
2019-06-15T02:41:55.345Z,3.05
2019-06-15T02:44:24.089Z,3.00
2019-06-15T02:46:52.823Z,2.95
2019-06-15T02:49:21.485Z,2.90
2019-06-15T02:51:51.063Z,3.00
2019-06-15T02:54:19.784Z,3.20
2019-06-15T02:56:48.492Z,3.17
2019-06-15T02:59:17.252Z,2.90
2019-06-15T03:01:46.248Z,3.27
2019-06-15T03:04:14.998Z,2.83
2019-06-15T03:06:44.055Z,3.35
2019-06-15T03:09:12.807Z,2.60
2019-06-15T03:11:41.529Z,3.00
2019-06-15T03:14:10.305Z,3.47
2019-06-15T03:16:38.963Z,3.52
2019-06-15T03:19:07.723Z,3.02
2019-06-15T03:21:36.484Z,3.35
2019-06-15T03:24:05.941Z,3.33
2019-06-15T03:26:34.654Z,3.37
2019-06-15T03:29:03.379Z,3.67
2019-06-15T03:31:32.105Z,3.50
2019-06-15T03:34:00.821Z,3.70
2019-06-15T03:36:29.670Z,4.55
2019-06-15T03:38:58.400Z,4.17
2019-06-15T03:41:27.142Z,4.30
2019-06-15T03:43:55.745Z,4.42
2019-06-15T03:46:24.476Z,4.75
2019-06-15T03:48:53.230Z,4.50
2019-06-15T03:51:21.958Z,4.65
2019-06-15T03:53:50.584Z,5.15
2019-06-15T03:56:22.084Z,4.85
2019-06-15T03:58:49.662Z,4.70
2019-06-15T04:01:24.466Z,4.17
2019-06-15T04:03:53.106Z,4.92
2019-06-15T04:06:21.884Z,4.70
2019-06-15T04:08:50.531Z,4.87
2019-06-15T04:11:19.110Z,4.92
2019-06-15T04:13:47.733Z,5.33
2019-06-15T04:16:16.514Z,4.72
2019-06-15T04:18:45.180Z,5.37
2019-06-15T04:21:13.802Z,4.72
2019-06-15T04:23:42.490Z,5.45
2019-06-15T04:26:11.235Z,5.00
2019-06-15T04:28:39.908Z,5.12
2019-06-15T04:31:08.627Z,4.90
2019-06-15T04:33:37.286Z,4.78
2019-06-15T04:36:06.046Z,4.47
2019-06-15T04:38:34.838Z,4.62
2019-06-15T04:41:04.246Z,4.78
2019-06-15T04:43:33.017Z,4.97
2019-06-15T04:46:01.747Z,4.58
2019-06-15T04:48:30.466Z,4.92
2019-06-15T04:50:59.235Z,5.72
2019-06-15T04:53:27.980Z,4.67
2019-06-15T04:55:56.702Z,4.53
2019-06-15T04:58:25.502Z,5.33
2019-06-15T05:00:54.235Z,4.72
2019-06-15T05:03:23.051Z,4.87
2019-06-15T05:05:54.129Z,5.40
2019-06-15T05:08:22.862Z,5.28
2019-06-15T05:10:51.518Z,5.42
2019-06-15T05:13:20.219Z,5.17
2019-06-15T05:15:48.879Z,5.05
2019-06-15T05:18:17.652Z,5.50
2019-06-15T05:20:46.450Z,5.50
2019-06-15T05:23:15.183Z,4.65
2019-06-15T05:25:43.917Z,5.53
2019-06-15T05:28:12.606Z,4.90
2019-06-15T05:30:41.285Z,5.45
2019-06-15T05:33:10.001Z,5.62
2019-06-15T05:35:38.787Z,5.20
2019-06-15T05:38:07.496Z,5.65
2019-06-15T05:40:36.185Z,5.25
2019-06-15T05:43:05.041Z,5.90
2019-06-15T05:45:33.769Z,5.50
2019-06-15T05:48:02.489Z,5.87
2019-06-15T05:50:31.257Z,5.53
2019-06-15T05:52:59.979Z,5.53
2019-06-15T05:55:28.707Z,5.45
2019-06-15T05:57:57.409Z,5.10
2019-06-15T06:00:26.428Z,6.28
2019-06-15T06:02:55.114Z,6.05
2019-06-15T06:05:23.811Z,5.67
2019-06-15T06:07:54.560Z,5.87
2019-06-15T06:10:23.271Z,5.15
2019-06-15T06:12:52.103Z,5.97
2019-06-15T06:15:20.851Z,6.28
2019-06-15T06:17:49.550Z,5.55
2019-06-15T06:20:18.449Z,6.10
2019-06-15T06:22:47.172Z,6.03
2019-06-15T06:25:15.910Z,5.92
2019-06-15T06:27:44.727Z,6.00
2019-06-15T06:30:13.729Z,5.37
2019-06-15T06:32:42.462Z,5.90
2019-06-15T06:35:11.425Z,5.45
2019-06-15T06:37:40.160Z,5.42
2019-06-15T06:40:11.430Z,5.35
2019-06-15T06:42:40.173Z,4.58
2019-06-15T06:45:10.497Z,5.25
2019-06-15T06:47:39.221Z,4.90
2019-06-15T06:50:08.783Z,4.67
2019-06-15T06:52:37.511Z,4.80
2019-06-15T06:55:07.568Z,4.55
2019-06-15T06:57:50.807Z,4.58
2019-06-15T07:00:07.388Z,5.17
2019-06-15T07:02:36.135Z,5.22
2019-06-15T07:05:06.173Z,5.22
2019-06-15T07:07:35.039Z,4.58
2019-06-15T07:10:05.982Z,5.40
2019-06-15T07:12:34.775Z,5.00
2019-06-15T07:15:04.928Z,5.03
2019-06-15T07:17:33.788Z,5.12
2019-06-15T07:20:02.846Z,4.80
2019-06-15T07:22:31.512Z,5.15
2019-06-15T07:25:00.252Z,4.35
2019-06-15T07:27:29.323Z,4.17
2019-06-15T07:29:57.996Z,4.28
2019-06-15T07:32:26.758Z,4.47
2019-06-15T07:34:55.648Z,4.33
2019-06-15T07:37:24.416Z,3.87
2019-06-15T07:39:53.221Z,3.50
2019-06-15T07:42:22.007Z,3.87
2019-06-15T07:44:50.749Z,3.67
2019-06-15T07:47:19.658Z,3.20
2019-06-15T07:49:48.392Z,3.10
2019-06-15T07:52:17.138Z,3.80
2019-06-15T07:54:45.869Z,3.60
2019-06-15T07:57:14.646Z,3.60
2019-06-15T07:59:43.576Z,3.62
2019-06-15T08:02:12.393Z,3.20
2019-06-15T08:04:41.178Z,2.98
2019-06-15T08:07:09.919Z,3.08
2019-06-15T08:09:38.606Z,3.70
2019-06-15T08:12:07.358Z,3.40
2019-06-15T08:14:36.108Z,3.10
2019-06-15T08:17:04.846Z,3.40
2019-06-15T08:19:33.648Z,3.60
2019-06-15T08:22:02.352Z,4.20
2019-06-15T08:24:31.100Z,3.67
2019-06-15T08:26:59.764Z,4.17
2019-06-15T08:29:28.563Z,3.75
2019-06-15T08:31:57.299Z,3.35
2019-06-15T08:34:26.073Z,3.60
2019-06-15T08:36:54.900Z,4.00
2019-06-15T08:39:23.657Z,4.33
2019-06-15T08:41:56.952Z,3.65
2019-06-15T08:44:25.776Z,4.62
2019-06-15T08:46:54.591Z,4.15
2019-06-15T08:49:23.684Z,3.98
2019-06-15T08:51:55.797Z,3.55
2019-06-15T08:54:24.466Z,4.20
2019-06-15T08:56:53.243Z,3.75
2019-06-15T08:59:21.978Z,3.83
2019-06-15T09:01:50.786Z,3.60
2019-06-15T09:04:19.973Z,3.62
2019-06-15T09:06:48.767Z,3.60
2019-06-15T09:09:17.500Z,3.40
2019-06-15T09:11:46.293Z,3.47
2019-06-15T09:14:14.989Z,3.55
2019-06-15T09:16:43.748Z,3.25
2019-06-15T09:19:14.083Z,2.92
2019-06-15T09:21:42.786Z,3.50
2019-06-15T09:24:11.607Z,3.47
2019-06-15T09:26:40.275Z,4.28
2019-06-15T09:29:11.598Z,3.50
2019-06-15T09:31:39.392Z,3.15
2019-06-15T09:34:18.543Z,3.50
2019-06-15T09:36:38.507Z,3.22
2019-06-15T09:39:07.850Z,3.40
2019-06-15T09:41:36.676Z,3.30
2019-06-15T09:44:05.436Z,3.37
2019-06-15T09:46:34.169Z,3.62
2019-06-15T09:49:02.915Z,3.62
2019-06-15T09:51:31.627Z,3.67
2019-06-15T09:54:00.342Z,3.67
2019-06-15T09:56:29.138Z,3.45
2019-06-15T09:58:57.802Z,3.87
2019-06-15T10:01:26.527Z,5.83
2019-06-15T10:03:55.291Z,5.47
2019-06-15T10:06:24.022Z,5.30
2019-06-15T10:08:52.815Z,5.30
2019-06-15T10:11:21.492Z,5.33
2019-06-15T10:13:50.261Z,5.20
2019-06-15T10:16:18.976Z,5.05
2019-06-15T10:18:47.768Z,4.58
2019-06-15T10:21:16.480Z,4.60
2019-06-15T10:23:45.224Z,4.12
2019-06-15T10:26:13.993Z,3.95
2019-06-15T10:28:42.799Z,3.52
2019-06-15T10:31:11.822Z,3.22
2019-06-15T10:33:40.655Z,3.25
2019-06-15T10:36:09.773Z,2.90
2019-06-15T10:38:39.019Z,3.25
2019-06-15T10:41:07.859Z,3.17
2019-06-15T10:43:36.662Z,3.08
2019-06-15T10:46:05.530Z,3.30
2019-06-15T10:48:34.316Z,3.50
2019-06-15T10:51:03.069Z,3.08
2019-06-15T10:53:31.950Z,3.35
2019-06-15T10:56:00.662Z,2.98
2019-06-15T10:58:29.427Z,2.77
2019-06-15T11:00:58.165Z,2.65
2019-06-15T11:03:26.902Z,2.90
2019-06-15T11:05:55.575Z,2.80
2019-06-15T11:08:24.369Z,3.05
2019-06-15T11:11:01.827Z,3.42
2019-06-15T11:13:30.576Z,3.70
2019-06-15T11:15:59.661Z,3.45
2019-06-15T11:18:28.547Z,3.70
2019-06-15T11:20:58.929Z,3.10
2019-06-15T11:23:27.628Z,3.60
2019-06-15T11:25:56.441Z,3.58
2019-06-15T11:28:25.199Z,3.30
2019-06-15T11:30:53.862Z,3.62
2019-06-15T11:33:22.628Z,3.50
2019-06-15T11:35:51.356Z,3.35
2019-06-15T11:38:20.112Z,3.02
2019-06-15T11:40:48.943Z,3.05
2019-06-15T11:43:17.609Z,3.25
2019-06-15T11:45:47.354Z,3.55
2019-06-15T11:48:16.140Z,3.37
2019-06-15T11:50:44.771Z,3.98
2019-06-15T11:53:13.569Z,4.30
2019-06-15T11:55:42.372Z,4.17
2019-06-15T11:58:11.160Z,4.03
2019-06-15T12:00:41.578Z,4.22
2019-06-15T12:03:10.989Z,3.52
2019-06-15T12:05:39.780Z,3.70
2019-06-15T12:08:08.519Z,4.10
2019-06-15T12:10:37.259Z,3.92
2019-06-15T12:13:06.020Z,4.20
2019-06-15T12:15:36.365Z,3.52
2019-06-15T12:18:05.223Z,4.10
2019-06-15T12:20:34.457Z,3.72
2019-06-15T12:23:03.169Z,3.47
2019-06-15T12:25:31.983Z,3.37
2019-06-15T12:28:00.693Z,3.87
2019-06-15T12:30:45.925Z,3.92
2019-06-15T12:33:07.975Z,3.85
2019-06-15T12:35:45.464Z,4.03
2019-06-15T12:38:14.194Z,3.95
2019-06-15T12:40:45.992Z,4.00
2019-06-15T12:43:14.995Z,3.30
2019-06-15T12:45:43.817Z,3.27
2019-06-15T12:48:12.530Z,2.70
2019-06-15T12:50:41.312Z,2.70
2019-06-15T12:53:10.141Z,2.70
2019-06-15T12:55:38.841Z,1.82
2019-06-15T12:58:07.601Z,2.27
2019-06-15T13:00:38.051Z,2.45
2019-06-15T13:03:07.122Z,2.45
2019-06-15T13:05:35.968Z,2.10
2019-06-15T13:08:05.003Z,2.08
2019-06-15T13:10:33.744Z,2.40
2019-06-15T13:13:02.462Z,2.20
2019-06-15T13:15:31.233Z,1.98
2019-06-15T13:18:01.183Z,1.82
2019-06-15T13:20:30.335Z,1.80
2019-06-15T13:22:59.736Z,1.60
2019-06-15T13:25:28.387Z,1.65
2019-06-15T13:27:57.149Z,1.20
2019-06-15T13:30:26.087Z,1.85
2019-06-15T13:32:54.828Z,1.30
2019-06-15T13:35:23.592Z,1.00
2019-06-15T13:37:52.324Z,1.05
2019-06-15T13:40:21.174Z,1.22
2019-06-15T13:42:49.983Z,1.70
2019-06-15T13:45:18.922Z,1.70
2019-06-15T13:47:47.707Z,2.00
2019-06-15T13:50:16.552Z,1.85
2019-06-15T13:52:45.402Z,1.55
2019-06-15T13:55:14.244Z,1.70
2019-06-15T13:57:42.999Z,1.90
2019-06-15T14:00:12.733Z,3.12
2019-06-15T14:02:41.543Z,1.70
2019-06-15T14:05:10.534Z,1.80
2019-06-15T14:07:39.286Z,1.60
2019-06-15T14:10:08.026Z,1.92
2019-06-15T14:12:36.742Z,1.27
2019-06-15T14:15:09.440Z,1.35
2019-06-15T14:17:41.182Z,1.15
2019-06-15T14:20:10.410Z,1.15
2019-06-15T14:22:39.172Z,1.20
2019-06-15T14:25:08.085Z,1.55
2019-06-15T14:27:36.832Z,1.70
2019-06-15T14:30:09.368Z,1.40
2019-06-15T14:32:38.168Z,1.60
2019-06-15T14:35:08.123Z,1.20
2019-06-15T14:37:36.893Z,1.32
2019-06-15T14:40:06.527Z,1.30
2019-06-15T14:42:37.005Z,1.17
2019-06-15T14:45:07.215Z,1.50
2019-06-15T14:47:35.945Z,1.20
2019-06-15T14:50:06.543Z,1.05
2019-06-15T14:52:35.331Z,1.20
2019-06-15T14:55:04.066Z,1.20
2019-06-15T14:57:32.836Z,1.25
2019-06-15T15:00:05.873Z,1.15
2019-06-15T15:02:32.024Z,1.30
2019-06-15T15:05:00.796Z,1.52
2019-06-15T15:07:29.578Z,1.27
2019-06-15T15:10:01.042Z,1.42
2019-06-15T15:12:29.816Z,1.50
2019-06-15T15:14:58.606Z,1.37
2019-06-15T15:17:27.332Z,1.40
2019-06-15T15:19:57.297Z,1.57
2019-06-15T15:22:26.995Z,1.80
2019-06-15T15:24:56.584Z,1.57
2019-06-15T15:27:26.972Z,1.40
2019-06-15T15:29:57.100Z,1.50
2019-06-15T15:32:31.100Z,1.60
2019-06-15T15:34:56.546Z,1.60
2019-06-15T15:37:26.799Z,1.90
2019-06-15T15:39:56.568Z,1.75
2019-06-15T15:42:26.745Z,2.08
2019-06-15T15:44:56.473Z,1.70
2019-06-15T15:47:27.562Z,1.62
2019-06-15T15:49:57.575Z,1.50
2019-06-15T15:52:26.849Z,1.77
2019-06-15T15:54:56.535Z,1.80
2019-06-15T15:57:26.701Z,1.82
2019-06-15T15:59:56.359Z,1.90
2019-06-15T16:02:35.710Z,2.10
2019-06-15T16:04:57.601Z,2.25
2019-06-15T16:07:27.699Z,1.80
2019-06-15T16:09:56.754Z,2.08
2019-06-15T16:12:25.493Z,2.45
2019-06-15T16:14:56.352Z,2.02
2019-06-15T16:17:26.775Z,1.90
2019-06-15T16:19:56.398Z,2.15
2019-06-15T16:22:26.360Z,2.30
2019-06-15T16:24:56.471Z,2.17
2019-06-15T16:27:26.583Z,2.15
2019-06-15T16:29:56.984Z,1.70
2019-06-15T16:32:26.379Z,2.08
2019-06-15T16:34:55.309Z,2.52
2019-06-15T16:37:26.000Z,2.98
2019-06-15T16:39:54.394Z,2.90
2019-06-15T16:42:23.159Z,2.65
2019-06-15T16:44:51.930Z,2.75
2019-06-15T16:47:20.816Z,2.37
2019-06-15T16:49:49.547Z,2.30
2019-06-15T16:52:18.295Z,2.05
2019-06-15T16:54:47.122Z,2.02
2019-06-15T16:57:16.146Z,2.00
2019-06-15T16:59:46.801Z,2.05
2019-06-15T17:02:17.260Z,2.25
2019-06-15T17:04:46.735Z,2.30
2019-06-15T17:07:17.447Z,2.50
2019-06-15T17:09:46.501Z,2.22
2019-06-15T17:12:16.887Z,2.10
2019-06-15T17:14:46.433Z,2.00
2019-06-15T17:17:17.331Z,2.17
2019-06-15T17:19:46.783Z,2.40
2019-06-15T17:22:21.075Z,2.30
2019-06-15T17:24:46.221Z,1.90
2019-06-15T17:27:16.923Z,1.95
2019-06-15T17:29:46.893Z,2.00
2019-06-15T17:32:17.148Z,2.02
2019-06-15T17:34:46.963Z,2.25
2019-06-15T17:37:17.277Z,1.60
2019-06-15T17:39:46.679Z,2.12
2019-06-15T17:42:16.440Z,2.25
2019-06-15T17:44:46.214Z,1.98
2019-06-15T17:47:16.966Z,1.70
2019-06-15T17:49:46.858Z,1.60
2019-06-15T17:52:16.888Z,1.77
2019-06-15T17:54:46.628Z,1.70
2019-06-15T17:57:18.427Z,1.65
2019-06-15T17:59:47.173Z,1.60
2019-06-15T18:02:17.110Z,1.50
2019-06-15T18:04:47.537Z,1.60
2019-06-15T18:07:17.100Z,1.62
2019-06-15T18:09:46.575Z,2.02
2019-06-15T18:12:16.216Z,1.70
2019-06-15T18:14:46.423Z,1.70
2019-06-15T18:17:17.193Z,2.02
2019-06-15T18:19:46.969Z,1.87
2019-06-15T18:22:17.245Z,1.60
2019-06-15T18:24:46.656Z,1.52
2019-06-15T18:27:18.690Z,1.60
2019-06-15T18:29:47.426Z,2.02
2019-06-15T18:32:17.080Z,1.40
2019-06-15T18:34:46.724Z,1.60
2019-06-15T18:37:17.303Z,1.75
2019-06-15T18:39:46.790Z,1.47
2019-06-15T18:42:16.433Z,1.70
2019-06-15T18:44:47.647Z,1.60
2019-06-15T18:47:16.513Z,1.80
2019-06-15T18:49:47.311Z,1.87
2019-06-15T18:52:17.081Z,1.50
2019-06-15T18:54:46.746Z,1.75
2019-06-15T18:57:17.582Z,2.10
2019-06-15T18:59:47.387Z,1.80
2019-06-15T19:02:16.329Z,2.10
2019-06-15T19:04:45.026Z,2.40
2019-06-15T19:07:16.057Z,1.85
2019-06-15T19:09:46.443Z,2.08
2019-06-15T19:12:16.947Z,1.98
2019-06-15T19:14:46.917Z,2.08
2019-06-15T19:17:16.530Z,1.82
2019-06-15T19:19:46.783Z,2.10
2019-06-15T19:22:17.370Z,2.60
2019-06-15T19:24:50.317Z,4.28
2019-06-15T19:27:16.623Z,10.63
2019-06-15T19:29:46.595Z,18.52
2019-06-15T19:32:17.251Z,9.78
2019-06-15T19:34:50.398Z,13.15
2019-06-15T19:37:16.889Z,5.80
2019-06-15T19:39:46.355Z,2.10
2019-06-15T19:42:15.612Z,2.00
2019-06-15T19:44:44.283Z,2.22
2019-06-15T19:47:16.323Z,2.15
2019-06-15T19:49:46.705Z,2.15
2019-06-15T19:52:16.856Z,2.45
2019-06-15T19:54:45.626Z,2.33
2019-06-15T19:57:16.943Z,2.25
2019-06-15T19:59:44.694Z,2.20
2019-06-15T20:02:16.784Z,2.10
2019-06-15T20:04:59.053Z,2.45
2019-06-15T20:07:17.219Z,2.10
2019-06-15T20:09:46.335Z,2.20
2019-06-15T20:12:20.972Z,2.20
2019-06-15T20:14:46.254Z,2.05
2019-06-15T20:17:17.438Z,2.10
2019-06-15T20:19:46.484Z,2.40
2019-06-15T20:22:17.596Z,2.40
2019-06-15T20:24:47.394Z,2.02
2019-06-15T20:27:16.396Z,2.40
2019-06-15T20:29:47.510Z,2.20
2019-06-15T20:32:17.316Z,2.08
2019-06-15T20:34:46.421Z,2.00
2019-06-15T20:37:16.846Z,2.10
2019-06-15T20:39:46.865Z,2.20
2019-06-15T20:42:16.420Z,1.92
2019-06-15T20:44:46.184Z,2.10
2019-06-15T20:47:15.204Z,2.25
2019-06-15T20:49:46.270Z,2.00
2019-06-15T20:52:16.464Z,1.80
2019-06-15T20:54:46.405Z,2.10
2019-06-15T20:57:16.511Z,2.12
2019-06-15T20:59:47.400Z,2.30
2019-06-15T21:02:16.326Z,2.40
2019-06-15T21:04:45.063Z,2.05
2019-06-15T21:07:16.047Z,2.30
2019-06-15T21:09:46.629Z,2.22
2019-06-15T21:12:16.054Z,2.25
2019-06-15T21:14:46.947Z,2.17
2019-06-15T21:17:15.312Z,1.90
2019-06-15T21:19:46.572Z,2.10
2019-06-15T21:22:16.795Z,2.00
2019-06-15T21:24:46.391Z,2.02
2019-06-15T21:27:16.665Z,2.30
2019-06-15T21:29:45.525Z,2.10
2019-06-15T21:32:14.395Z,2.37
2019-06-15T21:34:43.049Z,1.82
2019-06-15T21:37:11.798Z,2.10
2019-06-15T21:39:40.479Z,2.00
2019-06-15T21:42:09.321Z,2.10
2019-06-15T21:44:37.972Z,2.00
2019-06-15T21:47:07.024Z,2.10
2019-06-15T21:49:35.958Z,2.20
2019-06-15T21:52:06.920Z,2.10
2019-06-15T21:54:36.014Z,2.40
2019-06-15T21:57:07.037Z,2.52
2019-06-15T21:59:37.140Z,2.27
2019-06-15T22:02:06.977Z,2.20
2019-06-15T22:04:36.775Z,2.60
2019-06-15T22:07:06.501Z,2.25
2019-06-15T22:09:36.381Z,2.58
2019-06-15T22:12:06.949Z,3.02
2019-06-15T22:14:35.921Z,2.60
2019-06-15T22:17:06.791Z,2.80
2019-06-15T22:19:36.849Z,3.35
2019-06-15T22:22:07.614Z,3.70
2019-06-15T22:24:36.286Z,3.12
2019-06-15T22:27:06.605Z,3.67
2019-06-15T22:29:36.492Z,4.12
2019-06-15T22:32:06.923Z,4.20
2019-06-15T22:34:36.319Z,3.90
2019-06-15T22:37:06.855Z,4.22
2019-06-15T22:39:37.040Z,3.12
2019-06-15T22:42:06.934Z,3.27
2019-06-15T22:44:37.253Z,3.08
2019-06-15T22:47:06.928Z,3.00
2019-06-15T22:49:36.012Z,2.77
2019-06-15T22:52:06.524Z,2.98
2019-06-15T22:54:37.678Z,2.75
2019-06-15T22:57:06.270Z,2.87
2019-06-15T22:59:35.331Z,3.20
2019-06-15T23:02:04.166Z,3.10
2019-06-15T23:04:32.855Z,3.00
2019-06-15T23:07:41.046Z,3.10
2019-06-15T23:09:36.539Z,3.45
2019-06-15T23:12:07.166Z,3.10
2019-06-15T23:14:37.293Z,3.25
2019-06-15T23:17:07.328Z,2.80
2019-06-15T23:19:36.183Z,2.67
2019-06-15T23:22:07.621Z,3.70
2019-06-15T23:24:36.321Z,2.98
2019-06-15T23:27:06.849Z,2.70
2019-06-15T23:29:36.829Z,2.92
2019-06-15T23:32:06.279Z,2.67
2019-06-15T23:34:35.192Z,3.20
2019-06-15T23:37:06.710Z,3.17
2019-06-15T23:39:36.133Z,3.27
2019-06-15T23:42:06.131Z,3.58
2019-06-15T23:44:36.107Z,2.98
2019-06-15T23:47:06.140Z,3.27
2019-06-15T23:49:36.654Z,2.92
2019-06-15T23:52:06.777Z,3.08
2019-06-15T23:54:37.036Z,3.12
2019-06-15T23:57:06.402Z,2.87
2019-06-15T23:59:37.169Z,3.02
